createdAt,value
2023-02-25T18:19:06.621Z,1013.59
2023-02-25T18:20:06.610Z,1013.55
2023-02-25T18:21:06.551Z,1013.63
2023-02-25T18:22:06.539Z,1013.58
2023-02-25T18:23:06.552Z,1013.60
2023-02-25T18:24:06.578Z,1013.59
2023-02-25T18:25:06.487Z,1013.61
2023-02-25T18:26:07.482Z,1013.57
2023-02-25T18:27:06.478Z,1013.56
2023-02-25T18:28:06.503Z,1013.58
2023-02-25T18:29:06.482Z,1013.55
2023-02-25T18:30:06.440Z,1013.59
2023-02-25T18:31:06.565Z,1013.62
2023-02-25T18:32:06.573Z,1013.66
2023-02-25T18:33:06.421Z,1013.63
2023-02-25T18:34:06.387Z,1013.64
2023-02-25T18:35:06.396Z,1013.69
2023-02-25T18:36:06.372Z,1013.66
2023-02-25T18:37:06.338Z,1013.69
2023-02-25T18:38:06.365Z,1013.71
2023-02-25T18:39:06.384Z,1013.73
2023-02-25T18:40:06.323Z,1013.79
2023-02-25T18:41:06.303Z,1013.82
2023-02-25T18:42:06.283Z,1013.79
2023-02-25T18:43:06.259Z,1013.79
2023-02-25T18:44:06.291Z,1013.75
2023-02-25T18:45:06.274Z,1013.79
2023-02-25T18:46:06.273Z,1013.75
2023-02-25T18:47:06.283Z,1013.76
2023-02-25T18:48:06.199Z,1013.79
2023-02-25T18:49:06.194Z,1013.84
2023-02-25T18:50:06.182Z,1013.83
2023-02-25T18:51:06.176Z,1013.87
2023-02-25T18:52:06.165Z,1013.83
2023-02-25T18:53:06.221Z,1013.88
2023-02-25T18:54:06.117Z,1013.87
2023-02-25T18:55:06.097Z,1013.86
2023-02-25T18:56:06.152Z,1013.86
2023-02-25T18:57:06.085Z,1013.88
2023-02-25T18:58:06.081Z,1013.90
2023-02-25T18:59:06.043Z,1013.94
2023-02-25T19:00:06.054Z,1013.92
2023-02-25T19:01:06.055Z,1013.94
2023-02-25T19:02:06.126Z,1013.93
2023-02-25T19:03:06.050Z,1013.91
2023-02-25T19:04:06.002Z,1013.92
2023-02-25T19:05:05.984Z,1013.91
2023-02-25T19:06:05.983Z,1013.94
2023-02-25T19:07:05.956Z,1013.94
2023-02-25T19:08:05.990Z,1013.97
2023-02-25T19:09:06.465Z,1013.98
2023-02-25T19:10:05.928Z,1013.97
2023-02-25T19:11:05.945Z,1013.98
2023-02-25T19:12:05.912Z,1014.03
2023-02-25T19:13:05.869Z,1014.03
2023-02-25T19:14:05.894Z,1014.01
2023-02-25T19:15:05.855Z,1014.02
2023-02-25T19:16:05.843Z,1014.01
2023-02-25T19:17:05.833Z,1014.04
2023-02-25T19:18:05.832Z,1014.07
2023-02-25T19:19:05.836Z,1014.00
2023-02-25T19:20:05.783Z,1014.04
2023-02-25T19:21:05.801Z,1014.03
2023-02-25T19:22:05.827Z,1014.09
2023-02-25T19:23:05.742Z,1014.08
2023-02-25T19:24:05.735Z,1014.12
2023-02-25T19:25:05.744Z,1014.15
2023-02-25T19:26:05.706Z,1014.20
2023-02-25T19:27:05.692Z,1014.13
2023-02-25T19:28:05.804Z,1014.08
2023-02-25T19:29:05.687Z,1014.14
2023-02-25T19:30:05.692Z,1014.19
2023-02-25T19:31:05.770Z,1014.19
2023-02-25T19:32:05.757Z,1014.20
2023-02-25T19:33:05.641Z,1014.22
2023-02-25T19:34:05.636Z,1014.19
2023-02-25T19:35:05.636Z,1014.20
2023-02-25T19:36:05.611Z,1014.19
2023-02-25T19:37:05.557Z,1014.20
2023-02-25T19:38:05.544Z,1014.22
2023-02-25T19:39:06.374Z,1014.24
2023-02-25T19:40:05.535Z,1014.28
2023-02-25T19:41:05.554Z,1014.27
2023-02-25T19:42:05.495Z,1014.24
2023-02-25T19:43:05.495Z,1014.27
2023-02-25T19:44:05.493Z,1014.28
2023-02-25T19:45:06.073Z,1014.28
2023-02-25T19:46:05.459Z,1014.29
2023-02-25T19:47:05.424Z,1014.30
2023-02-25T19:48:05.413Z,1014.34
2023-02-25T19:49:05.403Z,1014.36
2023-02-25T19:50:05.406Z,1014.41
2023-02-25T19:51:05.372Z,1014.40
2023-02-25T19:52:05.361Z,1014.41
2023-02-25T19:53:05.396Z,1014.43
2023-02-25T19:54:05.341Z,1014.45
2023-02-25T19:55:05.337Z,1014.43
2023-02-25T19:56:05.473Z,1014.44
2023-02-25T19:57:05.310Z,1014.45
2023-02-25T19:58:05.288Z,1014.51
2023-02-25T19:59:05.273Z,1014.50
2023-02-25T20:00:06.489Z,1014.57
2023-02-25T20:01:05.319Z,1014.60
2023-02-25T20:02:05.240Z,1014.56
2023-02-25T20:03:05.240Z,1014.53
2023-02-25T20:04:05.292Z,1014.53
2023-02-25T20:05:05.188Z,1014.53
2023-02-25T20:06:05.199Z,1014.58
2023-02-25T20:07:05.218Z,1014.56
2023-02-25T20:08:05.147Z,1014.61
2023-02-25T20:09:05.123Z,1014.61
2023-02-25T20:10:05.132Z,1014.59
2023-02-25T20:11:05.138Z,1014.59
2023-02-25T20:12:05.115Z,1014.58
2023-02-25T20:13:05.110Z,1014.62
2023-02-25T20:14:05.070Z,1014.65
2023-02-25T20:15:05.093Z,1014.62
2023-02-25T20:16:05.075Z,1014.68
2023-02-25T20:17:05.102Z,1014.69
2023-02-25T20:18:05.046Z,1014.66
2023-02-25T20:19:05.015Z,1014.65
2023-02-25T20:20:05.025Z,1014.68
2023-02-25T20:21:04.995Z,1014.67
2023-02-25T20:22:04.988Z,1014.67
2023-02-25T20:23:04.979Z,1014.67
2023-02-25T20:24:05.006Z,1014.75
2023-02-25T20:25:04.920Z,1014.78
2023-02-25T20:26:04.938Z,1014.80
2023-02-25T20:27:04.908Z,1014.77
2023-02-25T20:28:04.915Z,1014.74
2023-02-25T20:29:04.900Z,1014.73
2023-02-25T20:30:04.966Z,1014.74
2023-02-25T20:31:04.859Z,1014.77
2023-02-25T20:32:04.980Z,1014.84
2023-02-25T20:33:04.866Z,1014.83
2023-02-25T20:34:05.814Z,1014.78
2023-02-25T20:35:04.829Z,1014.81
2023-02-25T20:36:04.795Z,1014.80
2023-02-25T20:37:04.827Z,1014.79
2023-02-25T20:38:04.766Z,1014.77
2023-02-25T20:39:04.846Z,1014.82
2023-02-25T20:40:04.770Z,1014.83
2023-02-25T20:41:04.745Z,1014.87
2023-02-25T20:42:04.759Z,1014.86
2023-02-25T20:43:04.787Z,1014.87
2023-02-25T20:44:04.688Z,1014.95
2023-02-25T20:45:04.717Z,1014.91
2023-02-25T20:46:04.726Z,1014.93
2023-02-25T20:47:04.650Z,1014.89
2023-02-25T20:48:04.673Z,1014.90
2023-02-25T20:49:04.621Z,1014.85
2023-02-25T20:50:04.722Z,1014.90
2023-02-25T20:51:04.630Z,1014.93
2023-02-25T20:52:04.637Z,1014.96
2023-02-25T20:53:04.600Z,1014.96
2023-02-25T20:54:04.618Z,1015.01
2023-02-25T20:55:06.674Z,1014.98
2023-02-25T20:56:04.590Z,1014.94
2023-02-25T20:57:04.523Z,1014.97
2023-02-25T20:58:04.531Z,1015.01
2023-02-25T20:59:04.508Z,1015.01
2023-02-25T21:00:04.491Z,1015.02
2023-02-25T21:01:04.533Z,1015.04
2023-02-25T21:02:04.518Z,1015.02
2023-02-25T21:03:04.500Z,1015.06
2023-02-25T21:04:04.469Z,1015.04
2023-02-25T21:05:04.414Z,1015.14
2023-02-25T21:06:04.421Z,1015.11
2023-02-25T21:07:04.422Z,1015.16
2023-02-25T21:08:04.379Z,1015.19
2023-02-25T21:09:04.378Z,1015.20
2023-02-25T21:10:04.370Z,1015.20
2023-02-25T21:11:04.364Z,1015.16
2023-02-25T21:12:04.369Z,1015.21
2023-02-25T21:13:04.324Z,1015.19
2023-02-25T21:14:04.316Z,1015.25
2023-02-25T21:15:04.285Z,1015.23
2023-02-25T21:16:04.304Z,1015.23
2023-02-25T21:17:04.295Z,1015.29
2023-02-25T21:18:04.283Z,1015.30
2023-02-25T21:19:04.274Z,1015.30
2023-02-25T21:20:04.246Z,1015.28
2023-02-25T21:21:04.218Z,1015.30
2023-02-25T21:22:04.194Z,1015.24
2023-02-25T21:23:04.191Z,1015.33
2023-02-25T21:24:04.169Z,1015.35
2023-02-25T21:25:04.241Z,1015.35
2023-02-25T21:26:04.181Z,1015.38
2023-02-25T21:27:04.168Z,1015.44
2023-02-25T21:28:04.124Z,1015.39
2023-02-25T21:29:04.118Z,1015.41
2023-02-25T21:30:04.130Z,1015.42
2023-02-25T21:31:04.145Z,1015.47
2023-02-25T21:32:04.131Z,1015.45
2023-02-25T21:33:04.087Z,1015.44
2023-02-25T21:34:04.047Z,1015.44
2023-02-25T21:35:04.020Z,1015.44
2023-02-25T21:36:04.020Z,1015.42
2023-02-25T21:37:04.019Z,1015.51
2023-02-25T21:38:04.015Z,1015.41
2023-02-25T21:39:04.188Z,1015.43
2023-02-25T21:40:03.997Z,1015.43
2023-02-25T21:41:03.941Z,1015.45
2023-02-25T21:42:03.968Z,1015.43
2023-02-25T21:43:03.949Z,1015.45
2023-02-25T21:44:04.020Z,1015.48
2023-02-25T21:45:03.935Z,1015.48
2023-02-25T21:46:03.919Z,1015.49
2023-02-25T21:47:03.916Z,1015.46
2023-02-25T21:48:03.879Z,1015.48
2023-02-25T21:49:03.922Z,1015.52
2023-02-25T21:50:03.848Z,1015.55
2023-02-25T21:51:03.825Z,1015.56
2023-02-25T21:52:03.836Z,1015.57
2023-02-25T21:53:03.858Z,1015.55
2023-02-25T21:54:03.835Z,1015.63
2023-02-25T21:55:03.776Z,1015.61
2023-02-25T21:56:03.754Z,1015.64
2023-02-25T21:57:03.787Z,1015.66
2023-02-25T21:58:03.751Z,1015.63
2023-02-25T21:59:03.733Z,1015.67
2023-02-25T22:00:03.773Z,1015.64
2023-02-25T22:01:03.734Z,1015.67
2023-02-25T22:02:03.675Z,1015.65
2023-02-25T22:03:03.668Z,1015.67
2023-02-25T22:04:03.759Z,1015.68
2023-02-25T22:05:03.704Z,1015.67
2023-02-25T22:06:03.657Z,1015.72
2023-02-25T22:07:03.661Z,1015.70
2023-02-25T22:08:03.639Z,1015.72
2023-02-25T22:09:03.593Z,1015.74
2023-02-25T22:10:03.612Z,1015.76
2023-02-25T22:11:03.586Z,1015.77
2023-02-25T22:12:03.616Z,1015.77
2023-02-25T22:13:03.561Z,1015.75
2023-02-25T22:14:03.640Z,1015.77
2023-02-25T22:15:03.539Z,1015.73
2023-02-25T22:16:03.616Z,1015.74
2023-02-25T22:17:03.510Z,1015.77
2023-02-25T22:18:03.516Z,1015.82
2023-02-25T22:19:03.491Z,1015.84
2023-02-25T22:20:03.447Z,1015.73
2023-02-25T22:21:03.468Z,1015.81
2023-02-25T22:22:03.452Z,1015.74
2023-02-25T22:23:03.418Z,1015.74
2023-02-25T22:24:03.408Z,1015.77
2023-02-25T22:25:03.394Z,1015.80
2023-02-25T22:26:03.384Z,1015.77
2023-02-25T22:27:03.363Z,1015.81
2023-02-25T22:28:05.350Z,1015.84
2023-02-25T22:29:03.330Z,1015.86
2023-02-25T22:30:03.368Z,1015.84
2023-02-25T22:31:03.439Z,1015.84
2023-02-25T22:32:03.470Z,1015.85
2023-02-25T22:33:03.313Z,1015.83
2023-02-25T22:34:03.276Z,1015.84
2023-02-25T22:35:03.254Z,1015.81
2023-02-25T22:36:03.246Z,1015.86
2023-02-25T22:37:03.295Z,1015.91
2023-02-25T22:38:03.256Z,1015.89
2023-02-25T22:39:03.233Z,1015.84
2023-02-25T22:40:03.194Z,1015.88
2023-02-25T22:41:03.182Z,1015.83
2023-02-25T22:42:03.174Z,1015.87
2023-02-25T22:43:03.157Z,1015.88
2023-02-25T22:44:03.204Z,1015.87
2023-02-25T22:45:03.175Z,1015.86
2023-02-25T22:46:03.131Z,1015.85
2023-02-25T22:47:03.132Z,1015.82
2023-02-25T22:48:03.110Z,1015.82
2023-02-25T22:49:03.107Z,1015.81
2023-02-25T22:50:03.087Z,1015.85
2023-02-25T22:51:03.071Z,1015.88
2023-02-25T22:52:03.068Z,1015.87
2023-02-25T22:53:03.063Z,1015.91
2023-02-25T22:54:03.040Z,1015.89
2023-02-25T22:55:03.020Z,1015.85
2023-02-25T22:56:03.010Z,1015.85
2023-02-25T22:57:02.991Z,1015.89
2023-02-25T22:58:02.997Z,1015.87
2023-02-25T22:59:32.851Z,1015.86
2023-02-25T23:00:32.834Z,1015.89
2023-02-25T23:01:32.882Z,1015.87
2023-02-25T23:02:32.834Z,1015.87
2023-02-25T23:03:32.833Z,1015.85
2023-02-25T23:04:32.887Z,1015.88
2023-02-25T23:05:32.807Z,1015.91
2023-02-25T23:06:43.548Z,1015.95
2023-02-25T23:07:33.748Z,1015.93
2023-02-25T23:08:32.772Z,1015.96
2023-02-25T23:09:32.809Z,1015.95
2023-02-25T23:10:32.717Z,1015.93
2023-02-25T23:11:32.738Z,1015.95
2023-02-25T23:12:32.675Z,1015.94
2023-02-25T23:13:32.701Z,1015.90
2023-02-25T23:14:32.656Z,1015.95
2023-02-25T23:15:32.672Z,1015.94
2023-02-25T23:16:32.650Z,1015.92
2023-02-25T23:17:32.649Z,1015.97
2023-02-25T23:18:32.612Z,1015.94
2023-02-25T23:19:32.584Z,1015.96
2023-02-25T23:20:32.571Z,1015.96
2023-02-25T23:21:32.564Z,1015.98
2023-02-25T23:22:34.812Z,1015.98
2023-02-25T23:23:32.571Z,1015.98
2023-02-25T23:24:32.524Z,1016.01
2023-02-25T23:25:32.537Z,1016.02
2023-02-25T23:26:32.561Z,1016.02
2023-02-25T23:27:32.498Z,1016.03
2023-02-25T23:28:32.505Z,1016.03
2023-02-25T23:29:32.528Z,1016.08
2023-02-25T23:30:32.782Z,1016.12
2023-02-25T23:31:32.508Z,1016.12
2023-02-25T23:32:32.573Z,1016.10
2023-02-25T23:33:32.465Z,1016.13
2023-02-25T23:34:32.520Z,1016.13
2023-02-25T23:35:32.401Z,1016.14
2023-02-25T23:36:33.171Z,1016.14
2023-02-25T23:37:32.380Z,1016.12
2023-02-25T23:38:32.375Z,1016.13
2023-02-25T23:39:32.655Z,1016.11
2023-02-25T23:40:32.322Z,1016.10
2023-02-25T23:41:32.320Z,1016.13
2023-02-25T23:42:32.368Z,1016.09
2023-02-25T23:43:32.291Z,1016.19
2023-02-25T23:44:32.278Z,1016.12
2023-02-25T23:45:32.321Z,1016.11
2023-02-25T23:46:32.288Z,1016.14
2023-02-25T23:47:32.272Z,1016.15
2023-02-25T23:48:32.238Z,1016.16
2023-02-25T23:49:32.202Z,1016.17
2023-02-25T23:50:32.255Z,1016.17
2023-02-25T23:51:32.211Z,1016.17
2023-02-25T23:52:32.166Z,1016.19
2023-02-25T23:53:32.157Z,1016.21
2023-02-25T23:54:32.184Z,1016.23
2023-02-25T23:55:32.206Z,1016.28
2023-02-25T23:56:32.132Z,1016.35
2023-02-25T23:57:32.091Z,1016.32
2023-02-25T23:58:32.086Z,1016.34
2023-02-25T23:59:32.077Z,1016.42
